sensor_id;sensor_type;location;lat;lon;timestamp;P1;durP1;ratioP1;P2;durP2;ratioP2
15297;SDS011;7750;48.796;9.026;2022-11-15T09:02:25;3.67;;;1.70;;
15297;SDS011;7750;48.796;9.026;2022-11-15T09:07:26;5.83;;;2.27;;
15297;SDS011;7750;48.796;9.026;2022-11-15T09:12:29;4.10;;;2.40;;
15297;SDS011;7750;48.796;9.026;2022-11-15T09:17:37;2.50;;;2.00;;
15297;SDS011;7750;48.796;9.026;2022-11-15T09:22:38;5.10;;;3.30;;
15297;SDS011;7750;48.796;9.026;2022-11-15T09:27:39;3.47;;;3.03;;
15297;SDS011;7750;48.796;9.026;2022-11-15T09:32:39;4.50;;;3.07;;
15297;SDS011;7750;48.796;9.026;2022-11-15T09:37:40;5.97;;;3.67;;
15297;SDS011;7750;48.796;9.026;2022-11-15T09:42:51;5.47;;;3.60;;
15297;SDS011;7750;48.796;9.026;2022-11-15T10:04:38;8.53;;;3.43;;
15297;SDS011;7750;48.796;9.026;2022-11-15T10:15:11;3.53;;;1.80;;
15297;SDS011;7750;48.796;9.026;2022-11-15T10:25:23;3.83;;;2.30;;
15297;SDS011;7750;48.796;9.026;2022-11-15T10:30:31;3.90;;;2.20;;
15297;SDS011;7750;48.796;9.026;2022-11-15T10:35:37;2.60;;;2.03;;
15297;SDS011;7750;48.796;9.026;2022-11-15T10:40:39;3.00;;;2.07;;
15297;SDS011;7750;48.796;9.026;2022-11-15T10:45:41;3.87;;;2.40;;
15297;SDS011;7750;48.796;9.026;2022-11-15T10:50:43;2.30;;;1.93;;
15297;SDS011;7750;48.796;9.026;2022-11-15T10:55:48;3.73;;;2.30;;
15297;SDS011;7750;48.796;9.026;2022-11-15T11:00:52;3.20;;;2.20;;
15297;SDS011;7750;48.796;9.026;2022-11-15T11:11:45;2.50;;;1.83;;
15297;SDS011;7750;48.796;9.026;2022-11-15T11:17:11;3.00;;;2.03;;
15297;SDS011;7750;48.796;9.026;2022-11-15T11:22:48;2.90;;;2.23;;
15297;SDS011;7750;48.796;9.026;2022-11-15T11:34:17;5.50;;;1.87;;
15297;SDS011;7750;48.796;9.026;2022-11-15T11:50:14;2.40;;;1.80;;
15297;SDS011;7750;48.796;9.026;2022-11-15T11:55:17;3.87;;;1.80;;
15297;SDS011;7750;48.796;9.026;2022-11-15T12:00:43;4.73;;;2.07;;
15297;SDS011;7750;48.796;9.026;2022-11-15T12:06:24;3.13;;;1.90;;
15297;SDS011;7750;48.796;9.026;2022-11-15T12:11:59;3.40;;;2.30;;
15297;SDS011;7750;48.796;9.026;2022-11-15T12:17:12;2.47;;;1.80;;
15297;SDS011;7750;48.796;9.026;2022-11-15T12:22:20;2.20;;;1.70;;
15297;SDS011;7750;48.796;9.026;2022-11-15T12:32:41;2.60;;;1.77;;
15297;SDS011;7750;48.796;9.026;2022-11-15T12:38:12;4.00;;;1.87;;
15297;SDS011;7750;48.796;9.026;2022-11-15T12:43:39;2.67;;;2.03;;
15297;SDS011;7750;48.796;9.026;2022-11-15T12:53:42;3.13;;;1.83;;
15297;SDS011;7750;48.796;9.026;2022-11-15T12:58:51;5.70;;;1.90;;
15297;SDS011;7750;48.796;9.026;2022-11-15T13:09:52;6.50;;;2.27;;
15297;SDS011;7750;48.796;9.026;2022-11-15T13:14:50;3.27;;;2.00;;
15297;SDS011;7750;48.796;9.026;2022-11-15T13:20:27;7.87;;;2.07;;
15297;SDS011;7750;48.796;9.026;2022-11-15T13:30:38;4.30;;;1.50;;
15297;SDS011;7750;48.796;9.026;2022-11-15T13:35:40;3.63;;;2.00;;
15297;SDS011;7750;48.796;9.026;2022-11-15T13:40:45;3.97;;;1.73;;
15297;SDS011;7750;48.796;9.026;2022-11-15T13:46:12;2.90;;;2.00;;
15297;SDS011;7750;48.796;9.026;2022-11-15T14:08:23;1.70;;;1.30;;
15297;SDS011;7750;48.796;9.026;2022-11-15T14:13:29;2.60;;;1.90;;
15297;SDS011;7750;48.796;9.026;2022-11-15T14:18:42;5.00;;;1.53;;
15297;SDS011;7750;48.796;9.026;2022-11-15T14:29:22;2.50;;;1.70;;
15297;SDS011;7750;48.796;9.026;2022-11-15T14:34:26;2.37;;;2.00;;
15297;SDS011;7750;48.796;9.026;2022-11-15T14:39:34;3.97;;;2.07;;
15297;SDS011;7750;48.796;9.026;2022-11-15T14:44:37;2.87;;;1.70;;
15297;SDS011;7750;48.796;9.026;2022-11-15T14:55:25;2.33;;;1.60;;
15297;SDS011;7750;48.796;9.026;2022-11-15T15:00:36;2.70;;;1.90;;
15297;SDS011;7750;48.796;9.026;2022-11-15T15:05:41;5.43;;;1.87;;
15297;SDS011;7750;48.796;9.026;2022-11-15T15:10:46;6.70;;;2.23;;
15297;SDS011;7750;48.796;9.026;2022-11-15T15:15:52;4.40;;;2.30;;
15297;SDS011;7750;48.796;9.026;2022-11-15T15:20:56;5.63;;;3.30;;
15297;SDS011;7750;48.796;9.026;2022-11-15T15:26:06;2.40;;;2.10;;
15297;SDS011;7750;48.796;9.026;2022-11-15T15:31:08;3.60;;;2.47;;
15297;SDS011;7750;48.796;9.026;2022-11-15T15:36:11;5.43;;;3.10;;
15297;SDS011;7750;48.796;9.026;2022-11-15T15:41:16;7.30;;;3.67;;
15297;SDS011;7750;48.796;9.026;2022-11-15T15:51:54;3.50;;;2.97;;
15297;SDS011;7750;48.796;9.026;2022-11-15T15:57:05;4.97;;;3.40;;
15297;SDS011;7750;48.796;9.026;2022-11-15T16:02:08;10.03;;;3.30;;
15297;SDS011;7750;48.796;9.026;2022-11-15T16:07:15;4.27;;;2.80;;
15297;SDS011;7750;48.796;9.026;2022-11-15T16:12:20;4.70;;;3.30;;
15297;SDS011;7750;48.796;9.026;2022-11-15T16:17:21;5.83;;;3.10;;
15297;SDS011;7750;48.796;9.026;2022-11-15T16:22:25;4.23;;;3.30;;
15297;SDS011;7750;48.796;9.026;2022-11-15T16:27:25;4.83;;;3.27;;
15297;SDS011;7750;48.796;9.026;2022-11-15T16:32:26;5.47;;;3.63;;
15297;SDS011;7750;48.796;9.026;2022-11-15T16:37:27;4.77;;;3.67;;
15297;SDS011;7750;48.796;9.026;2022-11-15T16:42:27;7.83;;;4.30;;
15297;SDS011;7750;48.796;9.026;2022-11-15T16:47:28;6.10;;;3.50;;
15297;SDS011;7750;48.796;9.026;2022-11-15T16:52:31;4.37;;;3.60;;
15297;SDS011;7750;48.796;9.026;2022-11-15T16:57:34;8.23;;;4.00;;
15297;SDS011;7750;48.796;9.026;2022-11-15T17:02:35;4.23;;;3.23;;
15297;SDS011;7750;48.796;9.026;2022-11-15T17:07:39;5.90;;;4.00;;
15297;SDS011;7750;48.796;9.026;2022-11-15T17:12:39;7.83;;;4.23;;
15297;SDS011;7750;48.796;9.026;2022-11-15T17:17:40;5.70;;;3.87;;
15297;SDS011;7750;48.796;9.026;2022-11-15T17:22:41;7.50;;;4.13;;
15297;SDS011;7750;48.796;9.026;2022-11-15T17:27:42;4.57;;;3.27;;
15297;SDS011;7750;48.796;9.026;2022-11-15T17:32:43;6.30;;;3.50;;
15297;SDS011;7750;48.796;9.026;2022-11-15T17:37:44;3.87;;;3.20;;
15297;SDS011;7750;48.796;9.026;2022-11-15T17:42:47;6.10;;;3.53;;
15297;SDS011;7750;48.796;9.026;2022-11-15T17:47:47;4.23;;;3.03;;
15297;SDS011;7750;48.796;9.026;2022-11-15T18:18:43;5.33;;;3.60;;
15297;SDS011;7750;48.796;9.026;2022-11-15T20:16:29;9.73;;;3.67;;
15297;SDS011;7750;48.796;9.026;2022-11-15T20:21:29;7.37;;;3.83;;
15297;SDS011;7750;48.796;9.026;2022-11-15T20:26:30;6.10;;;4.73;;
15297;SDS011;7750;48.796;9.026;2022-11-15T20:31:31;5.90;;;3.80;;
15297;SDS011;7750;48.796;9.026;2022-11-15T20:36:32;7.13;;;4.80;;
15297;SDS011;7750;48.796;9.026;2022-11-15T20:41:33;7.70;;;5.10;;
15297;SDS011;7750;48.796;9.026;2022-11-15T20:46:33;7.23;;;4.23;;
15297;SDS011;7750;48.796;9.026;2022-11-15T20:51:34;5.70;;;4.70;;
15297;SDS011;7750;48.796;9.026;2022-11-15T20:56:35;6.63;;;4.20;;
15297;SDS011;7750;48.796;9.026;2022-11-15T21:01:36;6.27;;;3.73;;
15297;SDS011;7750;48.796;9.026;2022-11-15T21:06:40;7.73;;;4.57;;
15297;SDS011;7750;48.796;9.026;2022-11-15T21:11:43;8.20;;;5.17;;
15297;SDS011;7750;48.796;9.026;2022-11-15T21:17:05;6.63;;;4.90;;
15297;SDS011;7750;48.796;9.026;2022-11-15T21:22:14;7.80;;;5.10;;
15297;SDS011;7750;48.796;9.026;2022-11-15T21:27:15;7.50;;;5.47;;
15297;SDS011;7750;48.796;9.026;2022-11-15T21:32:18;7.50;;;5.33;;
15297;SDS011;7750;48.796;9.026;2022-11-15T21:37:19;9.13;;;5.40;;
15297;SDS011;7750;48.796;9.026;2022-11-15T21:42:20;14.80;;;8.87;;
15297;SDS011;7750;48.796;9.026;2022-11-15T21:47:23;7.13;;;5.37;;
15297;SDS011;7750;48.796;9.026;2022-11-15T21:52:24;9.97;;;6.10;;
15297;SDS011;7750;48.796;9.026;2022-11-15T21:57:24;9.37;;;5.07;;
15297;SDS011;7750;48.796;9.026;2022-11-15T22:02:29;6.60;;;4.87;;
15297;SDS011;7750;48.796;9.026;2022-11-15T22:07:29;5.50;;;4.03;;
15297;SDS011;7750;48.796;9.026;2022-11-15T22:12:30;7.20;;;4.90;;
15297;SDS011;7750;48.796;9.026;2022-11-15T22:17:32;5.40;;;4.20;;
15297;SDS011;7750;48.796;9.026;2022-11-15T22:22:51;5.17;;;4.47;;
15297;SDS011;7750;48.796;9.026;2022-11-15T22:27:52;6.37;;;4.40;;
15297;SDS011;7750;48.796;9.026;2022-11-15T22:32:53;7.47;;;5.70;;
15297;SDS011;7750;48.796;9.026;2022-11-15T22:37:54;5.60;;;4.63;;
15297;SDS011;7750;48.796;9.026;2022-11-15T22:42:55;9.10;;;4.83;;
15297;SDS011;7750;48.796;9.026;2022-11-15T22:47:55;10.40;;;4.60;;
15297;SDS011;7750;48.796;9.026;2022-11-15T22:52:56;6.17;;;4.57;;
15297;SDS011;7750;48.796;9.026;2022-11-15T22:57:57;7.23;;;4.40;;
15297;SDS011;7750;48.796;9.026;2022-11-15T23:02:58;7.23;;;4.67;;
15297;SDS011;7750;48.796;9.026;2022-11-15T23:07:58;7.97;;;5.30;;
15297;SDS011;7750;48.796;9.026;2022-11-15T23:13:03;6.87;;;5.13;;
15297;SDS011;7750;48.796;9.026;2022-11-15T23:18:17;5.87;;;4.43;;
15297;SDS011;7750;48.796;9.026;2022-11-15T23:23:18;5.77;;;4.60;;
15297;SDS011;7750;48.796;9.026;2022-11-15T23:28:18;5.17;;;3.90;;
15297;SDS011;7750;48.796;9.026;2022-11-15T23:33:19;5.77;;;4.33;;
15297;SDS011;7750;48.796;9.026;2022-11-15T23:38:39;6.70;;;3.97;;
15297;SDS011;7750;48.796;9.026;2022-11-15T23:43:42;7.13;;;4.20;;
15297;SDS011;7750;48.796;9.026;2022-11-15T23:48:48;6.87;;;3.97;;
15297;SDS011;7750;48.796;9.026;2022-11-15T23:53:48;6.00;;;4.37;;
15297;SDS011;7750;48.796;9.026;2022-11-15T23:58:49;6.20;;;4.50;;
